Time;durP1;ratioP1;P1;durP2;ratioP2;P2;SDS_P1;SDS_P2;PMS_P1;PMS_P2;Temp;Humidity;BMP_temperature;BMP_pressure;BME280_temperature;BME280_humidity;BME280_pressure;Samples;Min_cycle;Max_cycle;Signal;HPM_P1;HPM_P2
2022/01/08 00:02:22;;;;;;;1.10;1.00;;;3.10;98.00;;;;;;5015649;28;20506;-70
2022/01/08 00:04:49;;;;;;;1.10;1.00;;;3.00;98.00;;;;;;5014636;28;20515;-70
2022/01/08 00:07:16;;;;;;;1.10;1.00;;;3.00;98.00;;;;;;5014631;28;20498;-71
2022/01/08 00:09:45;;;;;;;1.20;1.20;;;3.00;98.00;;;;;;5015587;28;20494;-70
2022/01/08 00:12:13;;;;;;;1.10;1.00;;;3.00;98.00;;;;;;5014035;28;20494;-70
2022/01/08 00:14:40;;;;;;;1.10;1.00;;;3.00;98.00;;;;;;5015460;28;20451;-71
2022/01/08 00:17:07;;;;;;;2.27;1.57;;;3.00;98.00;;;;;;5015077;28;21114;-70
2022/01/08 00:19:34;;;;;;;4.60;2.90;;;3.00;98.00;;;;;;5015419;28;21216;-70
2022/01/08 00:22:01;;;;;;;1.10;1.00;;;3.00;98.00;;;;;;5013874;28;20517;-71
2022/01/08 00:24:28;;;;;;;1.10;1.00;;;3.00;98.00;;;;;;5015005;28;21009;-70
2022/01/08 00:26:56;;;;;;;1.10;1.00;;;3.00;98.00;;;;;;5015133;28;20542;-71
2022/01/08 00:29:23;;;;;;;1.10;1.00;;;3.00;98.00;;;;;;5015067;28;20491;-70
2022/01/08 00:31:50;;;;;;;1.10;1.00;;;3.00;98.00;;;;;;5014935;28;20498;-71
2022/01/08 00:34:17;;;;;;;1.10;1.00;;;3.00;98.00;;;;;;5015034;28;20546;-70
2022/01/08 00:36:44;;;;;;;1.10;1.00;;;3.00;98.00;;;;;;5013727;28;20490;-70
2022/01/08 00:39:11;;;;;;;1.10;1.00;;;3.00;98.00;;;;;;5014807;28;20515;-71
2022/01/08 00:41:38;;;;;;;1.70;1.60;;;3.00;98.00;;;;;;5013625;28;20494;-70
2022/01/08 00:44:07;;;;;;;1.40;1.13;;;3.00;98.00;;;;;;5014683;28;20524;-71
2022/01/08 00:46:35;;;;;;;1.10;1.00;;;2.90;98.00;;;;;;5013710;28;20490;-71
2022/01/08 00:49:04;;;;;;;1.10;1.00;;;2.90;98.00;;;;;;5015014;28;20459;-70
2022/01/08 00:51:31;;;;;;;1.20;1.10;;;2.90;98.00;;;;;;5013201;28;20463;-70
2022/01/08 00:53:58;;;;;;;1.10;1.00;;;3.00;98.00;;;;;;5014786;28;20502;-71
2022/01/08 00:56:25;;;;;;;1.30;1.13;;;3.10;98.00;;;;;;5014869;28;20541;-70
2022/01/08 00:58:52;;;;;;;3.00;2.37;;;3.10;98.00;;;;;;5014598;28;20529;-70
2022/01/08 01:01:20;;;;;;;1.10;1.00;;;3.20;98.00;;;;;;5014363;28;21273;-71
2022/01/08 01:03:47;;;;;;;1.10;1.00;;;3.20;98.00;;;;;;5014376;28;20463;-71
2022/01/08 01:06:14;;;;;;;1.10;1.00;;;3.20;98.00;;;;;;5014532;28;20548;-71
2022/01/08 01:08:41;;;;;;;1.50;1.50;;;3.20;98.00;;;;;;5014432;28;20498;-70
2022/01/08 01:11:08;;;;;;;1.20;1.10;;;3.20;98.00;;;;;;5014611;28;20805;-71
2022/01/08 01:13:35;;;;;;;1.13;0.90;;;3.20;98.00;;;;;;5014543;28;20498;-71
2022/01/08 01:16:04;;;;;;;1.47;1.37;;;3.30;98.00;;;;;;5014252;28;20537;-71
2022/01/08 01:18:34;;;;;;;1.10;1.00;;;3.30;98.00;;;;;;5013112;28;20892;-70
2022/01/08 01:21:02;;;;;;;1.10;1.00;;;3.30;98.00;;;;;;5014471;28;20494;-70
2022/01/08 01:23:35;;;;;;;1.10;0.90;;;3.30;98.00;;;;;;5014288;28;20451;-71
2022/01/08 01:26:05;;;;;;;1.20;1.00;;;3.30;98.00;;;;;;5014151;28;20586;-70
2022/01/08 01:28:44;;;;;;;1.10;1.00;;;3.30;98.00;;;;;;5014258;28;20466;-70
2022/01/08 01:42:27;;;;;;;1.17;1.00;;;3.60;98.00;;;;;;5013993;28;20442;-71
2022/01/08 01:47:38;;;;;;;1.33;1.10;;;3.60;98.00;;;;;;5013495;28;20450;-71
2022/01/08 01:50:10;;;;;;;1.10;0.97;;;3.70;98.00;;;;;;5013693;28;20926;-70
2022/01/08 01:52:37;;;;;;;1.20;1.00;;;3.70;98.00;;;;;;5013520;28;20467;-71
2022/01/08 01:55:06;;;;;;;1.10;1.00;;;3.70;98.00;;;;;;5013524;28;20539;-71
2022/01/08 01:57:33;;;;;;;1.10;1.00;;;3.70;98.00;;;;;;5013492;28;20460;-70
2022/01/08 02:00:03;;;;;;;1.30;1.20;;;3.80;98.00;;;;;;5013655;28;20508;-70
2022/01/08 02:02:30;;;;;;;1.10;0.90;;;3.80;98.00;;;;;;5013462;28;20466;-70
2022/01/08 02:04:58;;;;;;;1.10;1.00;;;3.80;98.00;;;;;;5013293;28;21078;-69
2022/01/08 02:07:28;;;;;;;1.20;1.07;;;3.80;98.00;;;;;;5013071;28;20496;-70
2022/01/08 02:09:56;;;;;;;1.10;1.00;;;3.80;98.00;;;;;;5012883;28;20878;-69
2022/01/08 02:12:23;;;;;;;1.10;1.00;;;3.80;98.00;;;;;;5012246;28;20473;-70
2022/01/08 02:14:51;;;;;;;1.10;1.00;;;3.80;98.00;;;;;;5011833;28;20510;-70
2022/01/08 02:17:18;;;;;;;1.70;1.40;;;3.90;98.00;;;;;;5013074;28;20467;-71
2022/01/08 02:19:45;;;;;;;1.10;0.90;;;3.90;98.00;;;;;;5013377;28;20910;-71
2022/01/08 02:22:16;;;;;;;1.10;1.00;;;3.90;98.00;;;;;;5013064;28;20529;-71
2022/01/08 02:24:45;;;;;;;1.10;1.00;;;3.80;98.00;;;;;;5012853;28;20483;-70
2022/01/08 02:27:14;;;;;;;1.10;0.97;;;3.80;98.00;;;;;;5012927;28;20516;-70
2022/01/08 02:29:42;;;;;;;1.20;1.10;;;3.80;98.00;;;;;;5012847;28;20502;-70
2022/01/08 02:32:13;;;;;;;1.10;1.00;;;3.80;98.00;;;;;;5012842;28;20463;-70
2022/01/08 02:34:41;;;;;;;1.20;1.10;;;3.80;98.00;;;;;;5012935;28;20487;-70
2022/01/08 02:37:11;;;;;;;1.20;1.00;;;3.80;98.00;;;;;;5012845;28;20456;-71
2022/01/08 02:39:41;;;;;;;1.20;1.07;;;3.80;98.00;;;;;;5012912;28;20505;-71
2022/01/08 02:44:51;;;;;;;1.10;0.90;;;3.80;98.00;;;;;;5012617;28;20483;-70
2022/01/08 02:47:19;;;;;;;4.10;1.77;;;3.90;98.00;;;;;;5012819;28;20502;-70
2022/01/08 02:49:51;;;;;;;1.20;1.00;;;4.00;98.00;;;;;;5012864;28;20492;-70
2022/01/08 02:52:18;;;;;;;1.10;1.00;;;3.90;98.00;;;;;;5013013;28;20605;-70
2022/01/08 02:54:47;;;;;;;1.10;1.00;;;3.80;98.00;;;;;;5012818;28;20546;-70
2022/01/08 02:57:14;;;;;;;1.10;0.90;;;3.90;98.00;;;;;;5012188;28;20545;-70
2022/01/08 02:59:41;;;;;;;1.10;1.00;;;3.80;98.00;;;;;;5012728;28;20962;-70
2022/01/08 03:02:08;;;;;;;1.17;1.00;;;3.70;98.00;;;;;;5012335;28;20545;-71
2022/01/08 03:04:36;;;;;;;1.10;0.93;;;3.70;98.00;;;;;;5012230;28;20467;-70
2022/01/08 03:07:03;;;;;;;1.63;1.40;;;3.70;98.00;;;;;;5011489;28;20452;-71
2022/01/08 03:09:31;;;;;;;1.20;1.10;;;3.80;98.00;;;;;;5012535;28;20542;-71
2022/01/08 03:11:59;;;;;;;1.10;1.00;;;3.80;98.00;;;;;;5012049;28;20784;-71
2022/01/08 03:14:28;;;;;;;2.40;1.43;;;3.90;98.00;;;;;;5012183;28;20450;-71
2022/01/08 03:16:55;;;;;;;2.37;1.33;;;3.90;98.00;;;;;;5012204;28;20870;-70
2022/01/08 03:19:23;;;;;;;1.10;1.00;;;4.00;98.00;;;;;;5011891;28;20533;-69
2022/01/08 03:21:54;;;;;;;1.10;0.90;;;3.90;98.00;;;;;;5012219;28;20966;-71
2022/01/08 03:24:27;;;;;;;1.10;1.00;;;3.90;98.00;;;;;;5012019;28;20459;-70
2022/01/08 03:26:54;;;;;;;1.10;0.93;;;4.00;98.00;;;;;;5011162;28;20546;-71
2022/01/08 03:29:23;;;;;;;1.10;1.00;;;4.00;98.00;;;;;;5011847;28;20499;-71
2022/01/08 03:31:50;;;;;;;1.13;1.00;;;4.00;98.00;;;;;;5012082;28;20541;-71
2022/01/08 03:34:18;;;;;;;1.20;1.00;;;4.00;98.00;;;;;;5011803;28;20962;-70
2022/01/08 03:36:46;;;;;;;1.10;1.00;;;4.00;98.00;;;;;;5010694;28;20491;-71
2022/01/08 03:39:14;;;;;;;1.10;0.97;;;4.10;98.00;;;;;;5010783;28;20513;-70
2022/01/08 03:41:45;;;;;;;1.10;1.00;;;4.10;98.00;;;;;;5011833;28;20538;-70
2022/01/08 03:44:12;;;;;;;1.13;1.00;;;4.10;98.00;;;;;;5011861;28;21084;-70
2022/01/08 03:46:41;;;;;;;1.30;1.10;;;4.10;98.00;;;;;;5012018;28;20571;-70
2022/01/08 03:49:24;;;;;;;1.20;1.00;;;4.20;98.00;;;;;;5011826;28;20463;-70
2022/01/08 03:51:52;;;;;;;1.20;1.00;;;4.20;98.00;;;;;;5012026;28;20447;-71
2022/01/08 03:54:20;;;;;;;1.40;1.40;;;4.20;98.00;;;;;;5011562;28;20962;-70
2022/01/08 03:56:47;;;;;;;1.10;0.90;;;4.30;98.00;;;;;;5011894;28;20479;-70
2022/01/08 03:59:14;;;;;;;1.20;0.90;;;4.30;98.00;;;;;;5011893;28;20499;-69
2022/01/08 04:01:43;;;;;;;1.20;1.00;;;4.30;98.00;;;;;;5012024;28;20523;-70
2022/01/08 04:04:10;;;;;;;1.10;0.90;;;4.30;98.00;;;;;;5012047;28;20538;-70
2022/01/08 04:06:37;;;;;;;1.10;1.00;;;4.30;98.00;;;;;;5012097;28;20840;-71
2022/01/08 04:09:04;;;;;;;1.10;1.00;;;4.30;98.00;;;;;;5011979;28;21149;-70
2022/01/08 04:11:31;;;;;;;1.10;1.00;;;4.30;98.00;;;;;;5011960;28;20475;-69
2022/01/08 04:13:58;;;;;;;1.20;1.00;;;4.40;98.00;;;;;;5011815;28;20496;-70
2022/01/08 04:16:30;;;;;;;1.10;1.00;;;4.30;98.00;;;;;;5012209;28;20455;-71
2022/01/08 04:19:04;;;;;;;1.13;1.00;;;4.30;98.00;;;;;;5011673;28;20466;-70
2022/01/08 04:24:16;;;;;;;1.10;1.00;;;4.20;98.00;;;;;;5011635;28;21163;-70
2022/01/08 04:26:43;;;;;;;1.20;1.03;;;4.00;98.00;;;;;;5011183;28;21018;-70
2022/01/08 04:29:10;;;;;;;1.10;1.00;;;4.00;98.00;;;;;;5011671;28;21027;-70
2022/01/08 04:31:40;;;;;;;1.10;1.00;;;4.00;98.00;;;;;;5011539;28;20466;-70
2022/01/08 04:34:09;;;;;;;1.20;1.10;;;4.00;98.00;;;;;;5011476;28;20452;-71
2022/01/08 04:36:35;;;;;;;1.47;1.00;;;4.00;98.00;;;;;;5011506;28;20482;-70
2022/01/08 04:39:03;;;;;;;1.20;1.00;;;3.90;98.00;;;;;;5014213;28;20524;-70
2022/01/08 04:41:31;;;;;;;1.10;1.00;;;4.00;98.00;;;;;;5014684;28;20485;-70
2022/01/08 04:43:58;;;;;;;1.10;1.00;;;3.90;98.00;;;;;;5014763;28;20493;-70
2022/01/08 04:46:25;;;;;;;1.10;1.00;;;4.00;98.00;;;;;;5014838;28;20519;-70
2022/01/08 04:48:52;;;;;;;1.17;1.00;;;4.00;98.00;;;;;;5014731;28;20470;-71
2022/01/08 04:51:21;;;;;;;1.10;1.00;;;4.00;98.00;;;;;;5014856;28;20558;-70
2022/01/08 04:53:49;;;;;;;1.10;1.10;;;4.10;98.00;;;;;;5014794;28;20491;-70
2022/01/08 04:56:16;;;;;;;1.10;1.00;;;4.10;98.00;;;;;;5013341;28;20460;-71
2022/01/08 04:58:43;;;;;;;1.10;1.00;;;4.10;98.00;;;;;;5014903;28;20456;-69
2022/01/08 05:01:13;;;;;;;1.10;1.00;;;4.20;98.00;;;;;;5014289;28;20459;-71
2022/01/08 05:03:42;;;;;;;1.10;0.90;;;4.10;98.00;;;;;;5014610;28;20487;-69
2022/01/08 05:06:09;;;;;;;1.10;1.00;;;4.20;98.00;;;;;;5014466;28;20538;-70
2022/01/08 05:08:40;;;;;;;1.10;1.00;;;4.20;98.00;;;;;;5014501;28;20463;-71
2022/01/08 05:11:07;;;;;;;1.10;1.00;;;4.10;98.00;;;;;;5014417;28;20499;-70
2022/01/08 05:13:34;;;;;;;1.10;1.00;;;4.10;98.00;;;;;;5014327;28;20546;-71
2022/01/08 05:16:01;;;;;;;1.10;0.90;;;4.10;98.00;;;;;;5014372;28;20447;-70
2022/01/08 05:18:31;;;;;;;1.10;1.00;;;4.10;98.00;;;;;;5014306;28;20506;-71
2022/01/08 05:21:09;;;;;;;1.10;0.90;;;4.00;98.00;;;;;;5013173;28;20467;-70
2022/01/08 05:23:37;;;;;;;1.10;1.00;;;4.00;98.00;;;;;;5013144;28;20513;-70
2022/01/08 05:26:04;;;;;;;1.10;0.90;;;3.90;98.00;;;;;;5014237;28;20571;-71
2022/01/08 05:28:32;;;;;;;1.10;1.00;;;3.90;98.00;;;;;;5014170;28;20491;-70
2022/01/08 05:30:58;;;;;;;1.10;1.00;;;3.80;98.00;;;;;;5014130;28;20526;-70
2022/01/08 05:33:26;;;;;;;1.10;1.00;;;3.80;98.00;;;;;;5014142;28;20514;-69
2022/01/08 05:35:53;;;;;;;1.10;1.00;;;3.80;98.00;;;;;;5014202;28;20497;-69
2022/01/08 05:38:19;;;;;;;1.10;1.00;;;3.60;98.00;;;;;;5013941;28;20494;-69
2022/01/08 05:40:49;;;;;;;1.10;0.90;;;3.50;98.00;;;;;;5013989;28;20459;-70
2022/01/08 05:43:15;;;;;;;1.10;1.00;;;3.40;98.00;;;;;;5014025;28;20458;-71
2022/01/08 05:45:42;;;;;;;1.10;0.90;;;3.40;98.00;;;;;;5013808;28;20973;-70
2022/01/08 05:48:09;;;;;;;1.10;1.00;;;3.30;98.00;;;;;;5013763;28;20497;-69
2022/01/08 05:50:36;;;;;;;1.10;0.97;;;3.30;98.00;;;;;;5012757;28;20995;-69
2022/01/08 05:53:03;;;;;;;1.10;1.00;;;3.20;98.00;;;;;;5013600;28;20455;-70
2022/01/08 05:55:31;;;;;;;1.10;1.00;;;3.20;98.00;;;;;;5013754;28;20980;-70
2022/01/08 05:57:59;;;;;;;1.57;1.10;;;3.00;98.00;;;;;;5013399;28;20517;-70
2022/01/08 06:00:26;;;;;;;1.10;1.00;;;3.00;98.00;;;;;;5013405;28;20548;-70
2022/01/08 06:02:54;;;;;;;7.83;2.83;;;3.00;98.00;;;;;;5013485;28;20521;-71
2022/01/08 06:05:21;;;;;;;1.10;0.90;;;2.90;98.00;;;;;;5013457;28;20563;-70
2022/01/08 06:07:49;;;;;;;1.10;0.90;;;2.90;98.00;;;;;;5013237;28;21077;-70
2022/01/08 06:10:16;;;;;;;1.10;1.00;;;2.90;98.00;;;;;;5013370;28;21035;-70
2022/01/08 06:12:43;;;;;;;1.10;0.90;;;2.80;98.00;;;;;;5013081;28;20532;-68
2022/01/08 06:15:12;;;;;;;1.20;1.10;;;2.80;98.00;;;;;;5013215;28;20466;-69
2022/01/08 06:17:39;;;;;;;1.10;1.00;;;2.80;98.00;;;;;;5011641;28;20558;-70
2022/01/08 06:20:08;;;;;;;1.10;0.90;;;2.70;98.00;;;;;;5013222;28;20541;-69
2022/01/08 06:22:35;;;;;;;1.10;1.00;;;2.70;98.00;;;;;;5013121;28;20479;-70
2022/01/08 06:25:02;;;;;;;1.10;0.90;;;2.70;98.00;;;;;;5012983;28;20856;-70
2022/01/08 06:27:29;;;;;;;1.10;1.00;;;2.80;98.00;;;;;;5011913;28;20621;-69
2022/01/08 06:29:56;;;;;;;1.10;0.90;;;2.70;98.00;;;;;;5013189;28;20498;-69
2022/01/08 06:32:25;;;;;;;1.10;1.00;;;2.70;98.00;;;;;;5011813;28;20458;-71
2022/01/08 06:34:52;;;;;;;1.10;1.00;;;2.70;98.00;;;;;;5012841;28;20455;-70
2022/01/08 06:37:18;;;;;;;1.10;0.90;;;2.70;98.00;;;;;;5012827;28;20494;-70
2022/01/08 06:39:45;;;;;;;1.10;0.90;;;2.70;98.00;;;;;;5012450;28;20498;-70
2022/01/08 06:42:12;;;;;;;1.10;0.97;;;2.70;98.00;;;;;;5012969;28;20493;-69
2022/01/08 06:44:39;;;;;;;1.10;0.90;;;2.60;98.00;;;;;;5012688;28;20553;-70
2022/01/08 06:47:06;;;;;;;1.10;1.00;;;2.60;98.00;;;;;;5012642;28;20576;-71
2022/01/08 06:49:34;;;;;;;1.10;0.90;;;2.50;98.00;;;;;;5012837;28;20846;-70
2022/01/08 06:52:01;;;;;;;1.10;1.00;;;2.50;98.00;;;;;;5012664;28;20494;-70
2022/01/08 06:54:28;;;;;;;1.10;0.90;;;2.50;98.00;;;;;;5012565;28;21023;-69
2022/01/08 06:56:55;;;;;;;1.10;0.90;;;2.40;98.00;;;;;;5012700;28;20490;-70
2022/01/08 06:59:22;;;;;;;1.10;1.00;;;2.40;98.00;;;;;;5012545;28;20521;-71
2022/01/08 07:01:49;;;;;;;1.10;1.00;;;2.40;98.00;;;;;;5012317;28;20458;-70
2022/01/08 07:04:16;;;;;;;1.10;0.93;;;2.30;98.00;;;;;;5011858;28;20516;-70
2022/01/08 07:06:44;;;;;;;1.10;0.90;;;2.30;98.00;;;;;;5011793;28;20521;-69
2022/01/08 07:09:11;;;;;;;1.10;1.10;;;2.20;98.00;;;;;;5012171;28;20872;-70
2022/01/08 07:11:42;;;;;;;1.10;0.90;;;2.20;98.00;;;;;;5012420;28;20462;-70
2022/01/08 07:14:09;;;;;;;1.10;1.00;;;2.20;98.00;;;;;;5012081;28;20462;-71
2022/01/08 07:16:36;;;;;;;1.10;0.90;;;2.20;98.00;;;;;;5012129;28;20509;-70
2022/01/08 07:19:03;;;;;;;1.10;1.03;;;2.30;98.00;;;;;;5011736;28;20884;-69
2022/01/08 07:21:30;;;;;;;1.10;1.00;;;2.30;98.00;;;;;;5012037;28;20917;-69
2022/01/08 07:23:58;;;;;;;1.10;0.90;;;2.30;98.00;;;;;;5012493;28;20548;-70
2022/01/08 07:26:25;;;;;;;1.10;0.90;;;2.40;98.00;;;;;;5012122;28;20526;-69
2022/01/08 07:28:53;;;;;;;1.10;1.00;;;2.40;98.00;;;;;;5012016;28;20490;-69
2022/01/08 07:31:22;;;;;;;1.10;1.00;;;2.40;98.00;;;;;;5011887;28;20556;-68
2022/01/08 07:33:50;;;;;;;1.10;1.00;;;2.40;98.00;;;;;;5012049;28;20454;-69
2022/01/08 07:36:18;;;;;;;1.10;1.00;;;2.50;98.00;;;;;;5012098;28;20548;-68
2022/01/08 07:38:45;;;;;;;1.10;1.00;;;2.40;98.00;;;;;;5011895;28;21049;-69
2022/01/08 07:41:13;;;;;;;1.10;1.00;;;2.50;98.00;;;;;;5011896;28;20515;-68
2022/01/08 07:43:40;;;;;;;1.10;1.00;;;2.50;98.00;;;;;;5011794;28;20467;-68
2022/01/08 07:46:07;;;;;;;1.10;1.00;;;2.50;98.00;;;;;;5010801;28;20554;-69
2022/01/08 07:48:34;;;;;;;1.10;1.00;;;2.60;98.00;;;;;;5010745;28;20490;-69
2022/01/08 07:51:02;;;;;;;1.10;1.00;;;2.60;98.00;;;;;;5011852;28;20520;-70
2022/01/08 07:53:29;;;;;;;1.10;1.00;;;2.60;98.00;;;;;;5010571;28;20999;-70
2022/01/08 07:56:04;;;;;;;1.10;0.90;;;2.70;98.00;;;;;;5011878;28;20490;-71
2022/01/08 07:58:33;;;;;;;1.10;1.00;;;2.70;98.00;;;;;;5010432;28;20494;-70
2022/01/08 08:01:00;;;;;;;1.10;0.97;;;2.70;98.00;;;;;;5011908;28;20490;-70
2022/01/08 08:03:28;;;;;;;1.10;1.00;;;2.80;98.00;;;;;;5011840;28;20483;-69
2022/01/08 08:05:55;;;;;;;1.10;1.00;;;2.80;98.00;;;;;;5010474;28;20553;-69
2022/01/08 08:08:22;;;;;;;1.10;0.97;;;2.80;98.00;;;;;;5011701;28;20856;-69
2022/01/08 08:10:50;;;;;;;1.10;1.00;;;2.80;98.00;;;;;;5012024;28;20505;-70
2022/01/08 08:13:18;;;;;;;1.10;1.00;;;2.80;98.00;;;;;;5013976;28;20545;-68
2022/01/08 08:15:46;;;;;;;1.10;1.10;;;2.70;98.00;;;;;;5015303;28;20537;-70
2022/01/08 08:18:15;;;;;;;1.10;0.97;;;2.70;98.00;;;;;;5015679;28;20494;-68
2022/01/08 08:20:42;;;;;;;1.10;0.97;;;2.80;98.00;;;;;;5015497;28;20454;-69
2022/01/08 08:23:10;;;;;;;1.10;1.00;;;2.90;98.00;;;;;;5015621;28;20451;-69
2022/01/08 08:25:38;;;;;;;1.20;1.10;;;2.80;98.00;;;;;;5014925;28;20529;-70
2022/01/08 08:28:05;;;;;;;1.10;1.00;;;2.80;98.00;;;;;;5015530;28;20601;-70
2022/01/08 08:30:33;;;;;;;1.10;1.00;;;2.80;98.00;;;;;;5015276;28;20467;-71
2022/01/08 08:33:02;;;;;;;1.10;1.00;;;2.70;98.00;;;;;;5015339;28;20550;-71
2022/01/08 08:35:29;;;;;;;1.10;0.90;;;2.50;98.00;;;;;;5015283;28;20548;-73
2022/01/08 08:37:56;;;;;;;1.93;1.47;;;2.50;98.00;;;;;;5026576;28;20498;-68
2022/01/08 08:40:23;;;;;;;1.10;0.90;;;2.40;98.00;;;;;;5036473;28;20500;-69
2022/01/08 08:42:50;;;;;;;1.10;1.00;;;2.40;98.00;;;;;;5040891;28;20492;-70
2022/01/08 08:45:17;;;;;;;1.10;1.00;;;2.30;98.00;;;;;;5048988;28;20462;-70
2022/01/08 08:47:44;;;;;;;1.10;1.00;;;2.30;98.00;;;;;;5047074;28;20578;-69
2022/01/08 08:50:15;;;;;;;2.30;1.87;;;2.30;98.00;;;;;;5032815;28;20594;-69
2022/01/08 08:52:42;;;;;;;1.10;0.90;;;2.30;98.00;;;;;;5034994;28;20504;-68
2022/01/08 08:55:10;;;;;;;1.10;1.00;;;2.30;98.00;;;;;;5039579;28;20492;-69
2022/01/08 08:57:37;;;;;;;1.20;1.13;;;2.40;98.00;;;;;;5044686;28;20472;-67
2022/01/08 09:00:08;;;;;;;1.10;0.90;;;2.60;98.00;;;;;;5040733;28;20541;-71
2022/01/08 09:02:35;;;;;;;1.10;1.00;;;2.60;98.00;;;;;;5034389;28;20849;-72
2022/01/08 09:05:03;;;;;;;1.10;1.03;;;2.70;98.00;;;;;;5034197;28;20492;-71
2022/01/08 09:07:33;;;;;;;1.10;1.00;;;2.70;98.00;;;;;;5034205;28;20482;-68
2022/01/08 09:10:00;;;;;;;1.10;1.00;;;2.80;98.00;;;;;;5034161;28;20470;-70
2022/01/08 09:12:27;;;;;;;1.20;1.20;;;2.80;98.00;;;;;;5034302;28;20465;-70
2022/01/08 09:14:54;;;;;;;1.10;1.00;;;2.80;98.00;;;;;;5033029;28;20564;-71
2022/01/08 09:17:21;;;;;;;1.10;1.00;;;2.70;98.00;;;;;;5033906;28;20980;-73
2022/01/08 09:19:48;;;;;;;1.10;1.00;;;2.80;98.00;;;;;;5033527;28;20487;-71
2022/01/08 09:22:18;;;;;;;1.10;1.00;;;2.90;98.00;;;;;;5033895;28;20523;-72
2022/01/08 09:24:47;;;;;;;1.10;0.93;;;3.00;98.00;;;;;;5034013;28;20465;-71
2022/01/08 09:27:14;;;;;;;1.10;0.90;;;3.10;98.00;;;;;;5033761;28;20486;-71
2022/01/08 09:29:41;;;;;;;1.10;1.00;;;3.20;98.00;;;;;;5032654;28;20987;-70
2022/01/08 09:32:09;;;;;;;2.40;1.70;;;3.20;98.00;;;;;;5031014;28;20520;-70
2022/01/08 09:34:37;;;;;;;1.20;1.07;;;3.20;98.00;;;;;;5032714;28;20468;-71
2022/01/08 09:37:05;;;;;;;1.10;0.90;;;3.20;98.00;;;;;;5032795;28;20462;-71
2022/01/08 09:39:32;;;;;;;1.10;0.90;;;3.20;98.00;;;;;;5033841;28;20944;-71
2022/01/08 09:42:00;;;;;;;1.10;1.00;;;3.20;98.00;;;;;;5033937;28;20502;-70
2022/01/08 09:44:28;;;;;;;1.10;1.00;;;3.30;98.00;;;;;;5033894;28;20459;-70
2022/01/08 09:46:55;;;;;;;2.33;1.30;;;3.30;98.00;;;;;;5033636;28;20573;-70
2022/01/08 09:49:21;;;;;;;1.10;1.00;;;3.40;98.00;;;;;;5033885;28;20463;-70
2022/01/08 09:51:48;;;;;;;1.10;1.03;;;3.50;98.00;;;;;;5033721;28;20466;-70
2022/01/08 09:54:15;;;;;;;1.10;1.00;;;3.50;98.00;;;;;;5033574;28;20928;-71
2022/01/08 09:56:42;;;;;;;1.10;1.00;;;3.50;98.00;;;;;;5033870;28;20589;-70
2022/01/08 09:59:11;;;;;;;1.20;1.10;;;3.60;98.00;;;;;;5033161;28;20490;-70
2022/01/08 10:01:39;;;;;;;1.10;0.90;;;3.70;98.00;;;;;;5033030;28;20874;-70
2022/01/08 10:04:07;;;;;;;1.10;1.00;;;3.70;98.00;;;;;;5031941;28;20495;-70
2022/01/08 10:06:36;;;;;;;1.10;1.00;;;3.80;98.00;;;;;;5032025;28;20926;-70
2022/01/08 10:09:05;;;;;;;1.10;1.00;;;3.90;98.00;;;;;;5032781;28;20529;-70
2022/01/08 10:11:33;;;;;;;1.10;0.90;;;3.90;98.00;;;;;;5033155;28;20816;-71
2022/01/08 10:14:06;;;;;;;1.10;0.90;;;4.00;98.00;;;;;;5032627;28;20458;-71
2022/01/08 10:19:30;;;;;;;1.10;1.00;;;4.00;98.00;;;;;;5032719;28;20809;-71
2022/01/08 10:21:57;;;;;;;1.20;1.20;;;4.10;98.00;;;;;;5032589;28;20501;-71
2022/01/08 10:24:27;;;;;;;1.10;1.10;;;4.10;98.00;;;;;;5032958;28;21000;-71
2022/01/08 10:27:02;;;;;;;1.10;1.00;;;4.00;98.00;;;;;;5031498;28;20465;-72
2022/01/08 10:29:29;;;;;;;1.10;1.00;;;4.10;98.00;;;;;;5032755;28;20481;-72
2022/01/08 10:31:59;;;;;;;1.10;1.00;;;4.20;98.00;;;;;;5032505;28;21034;-72
2022/01/08 10:34:27;;;;;;;1.10;0.97;;;4.10;98.00;;;;;;5032594;28;20545;-72
2022/01/08 10:37:01;;;;;;;1.70;1.40;;;4.20;98.00;;;;;;5031782;28;20505;-72
2022/01/08 10:39:31;;;;;;;1.10;1.00;;;4.30;98.00;;;;;;5032276;28;20459;-72
2022/01/08 10:42:00;;;;;;;1.10;1.00;;;4.40;98.00;;;;;;5031887;28;20467;-72
2022/01/08 10:44:28;;;;;;;1.10;1.00;;;4.60;98.00;;;;;;5032611;28;20496;-72
2022/01/08 10:47:00;;;;;;;1.10;1.00;;;4.50;98.00;;;;;;5032114;28;20554;-72
2022/01/08 10:49:39;;;;;;;1.10;0.90;;;4.60;98.00;;;;;;5032368;28;20510;-72
2022/01/08 10:52:09;;;;;;;1.10;1.00;;;4.50;98.00;;;;;;5032118;28;20945;-72
2022/01/08 10:54:38;;;;;;;1.10;1.00;;;4.50;98.00;;;;;;5032354;28;20497;-72
2022/01/08 10:57:08;;;;;;;1.10;1.00;;;4.50;98.00;;;;;;5031149;28;20494;-72
2022/01/08 10:59:36;;;;;;;1.10;1.00;;;4.60;98.00;;;;;;5032416;28;20451;-71
2022/01/08 11:02:06;;;;;;;1.10;1.00;;;4.60;98.00;;;;;;5032272;28;20516;-71
2022/01/08 11:04:42;;;;;;;1.10;1.00;;;4.60;98.00;;;;;;5030971;28;20456;-71
2022/01/08 11:07:11;;;;;;;1.10;1.00;;;4.50;98.00;;;;;;5031992;28;20462;-69
2022/01/08 11:09:47;;;;;;;1.10;1.00;;;4.40;98.00;;;;;;5029042;28;20920;-73
2022/01/08 11:12:18;;;;;;;1.10;0.97;;;4.40;98.00;;;;;;5030920;28;20572;-73
2022/01/08 11:17:37;;;;;;;1.10;1.00;;;4.40;98.00;;;;;;5046112;28;20459;-72
2022/01/08 11:20:09;;;;;;;1.10;1.00;;;4.30;98.00;;;;;;5030519;28;20554;-70
2022/01/08 11:22:38;;;;;;;1.10;1.00;;;4.20;98.00;;;;;;5039053;28;20516;-69
2022/01/08 11:25:09;;;;;;;1.10;0.90;;;4.10;98.00;;;;;;5032894;28;20522;-70
2022/01/08 11:27:46;;;;;;;1.10;1.00;;;4.10;98.00;;;;;;5038832;28;20497;-70
2022/01/08 11:30:19;;;;;;;1.10;1.00;;;4.00;98.00;;;;;;5039383;28;20453;-71
2022/01/08 11:32:48;;;;;;;1.93;1.17;;;3.90;98.00;;;;;;5031212;28;20452;-71
2022/01/08 11:35:16;;;;;;;1.10;1.00;;;3.80;98.00;;;;;;5043033;28;20514;-70
2022/01/08 11:37:46;;;;;;;1.10;1.00;;;3.80;98.00;;;;;;5042651;28;20459;-70
2022/01/08 11:40:15;;;;;;;1.10;1.00;;;3.80;98.00;;;;;;5042531;28;20563;-71
2022/01/08 11:42:49;;;;;;;1.10;1.00;;;4.00;98.00;;;;;;5042949;28;20451;-70
2022/01/08 11:45:18;;;;;;;1.10;1.00;;;4.20;98.00;;;;;;5028887;28;21039;-71
2022/01/08 11:47:50;;;;;;;1.10;0.90;;;4.50;98.00;;;;;;5040550;28;20901;-70
2022/01/08 11:50:20;;;;;;;1.10;1.07;;;4.70;98.00;;;;;;5033457;28;20485;-71
2022/01/08 11:53:07;;;;;;;1.10;1.00;;;4.80;98.00;;;;;;5049195;28;20485;-70
2022/01/08 11:55:36;;;;;;;1.30;1.20;;;4.90;98.00;;;;;;5042303;28;20521;-70
2022/01/08 11:58:19;;;;;;;1.10;0.90;;;4.90;98.00;;;;;;5034964;28;21194;-71
2022/01/08 12:00:57;;;;;;;1.20;1.00;;;4.80;98.00;;;;;;5034812;28;20453;-70
2022/01/08 12:03:34;;;;;;;1.10;1.00;;;4.70;98.00;;;;;;5050991;28;20494;-70
2022/01/08 12:06:39;;;;;;;1.10;0.90;;;4.70;98.00;;;;;;5049470;28;21038;-70
2022/01/08 12:09:22;;;;;;;1.20;1.10;;;4.90;98.00;;;;;;5046642;28;20494;-71
2022/01/08 12:12:00;;;;;;;2.70;1.50;;;5.20;98.00;;;;;;5026870;28;20549;-71
2022/01/08 12:14:28;;;;;;;1.10;1.00;;;5.40;98.00;;;;;;5028931;28;20541;-71
2022/01/08 12:16:58;;;;;;;1.10;1.00;;;5.50;98.00;;;;;;5050685;28;22383;-71
2022/01/08 12:19:33;;;;;;;1.17;1.00;;;5.30;98.00;;;;;;5049600;28;20551;-71
2022/01/08 12:22:02;;;;;;;1.20;1.00;;;5.30;98.00;;;;;;5042245;28;20493;-71
2022/01/08 12:24:40;;;;;;;1.10;1.00;;;5.20;98.00;;;;;;5042737;28;20956;-71
2022/01/08 12:27:36;;;;;;;1.10;0.97;;;5.10;98.00;;;;;;5046546;28;20538;-70
2022/01/08 12:30:05;;;;;;;1.10;0.90;;;5.10;98.00;;;;;;5041994;28;20468;-70
2022/01/08 12:32:35;;;;;;;1.10;1.00;;;5.00;98.00;;;;;;5042638;28;20454;-71
2022/01/08 12:35:22;;;;;;;1.17;1.10;;;4.90;98.00;;;;;;5042414;28;21032;-70
2022/01/08 12:37:51;;;;;;;1.10;1.00;;;5.00;98.00;;;;;;5035994;28;20489;-71
2022/01/08 12:40:35;;;;;;;1.10;1.00;;;5.00;98.00;;;;;;5041544;28;20521;-71
2022/01/08 12:43:18;;;;;;;1.10;0.90;;;5.00;98.00;;;;;;5041114;28;20927;-71
2022/01/08 12:45:47;;;;;;;1.10;1.00;;;5.00;98.00;;;;;;5037287;28;20492;-71
2022/01/08 12:48:14;;;;;;;1.20;1.00;;;5.00;98.00;;;;;;5033717;28;21356;-71
2022/01/08 12:50:55;;;;;;;1.20;1.10;;;5.30;98.00;;;;;;5033894;28;20486;-71
2022/01/08 12:53:25;;;;;;;1.10;1.00;;;5.50;98.00;;;;;;5048281;28;20478;-73
2022/01/08 12:56:13;;;;;;;1.20;0.90;;;5.40;98.00;;;;;;5043847;28;20485;-73
2022/01/08 12:58:53;;;;;;;1.20;1.00;;;5.50;98.00;;;;;;5033329;28;20955;-71
2022/01/08 13:01:23;;;;;;;1.20;0.90;;;5.80;98.00;;;;;;5033789;28;20491;-71
2022/01/08 13:03:53;;;;;;;1.20;1.00;;;6.20;98.00;;;;;;5034405;28;20543;-71
2022/01/08 13:06:27;;;;;;;1.20;1.00;;;6.10;98.00;;;;;;5034047;28;20526;-72
2022/01/08 13:08:56;;;;;;;1.20;1.00;;;6.20;98.00;;;;;;5034017;28;20483;-72
2022/01/08 13:11:25;;;;;;;1.20;0.90;;;6.20;98.00;;;;;;5034193;28;20455;-72
2022/01/08 13:13:56;;;;;;;1.20;0.90;;;5.70;98.00;;;;;;5034202;28;20866;-72
2022/01/08 13:16:26;;;;;;;2.33;1.10;;;5.70;98.00;;;;;;5033896;28;21156;-72
2022/01/08 13:18:56;;;;;;;1.30;1.07;;;5.60;98.00;;;;;;5033992;28;20561;-72
2022/01/08 13:21:29;;;;;;;1.57;1.50;;;5.40;98.00;;;;;;5033963;28;20529;-72
2022/01/08 13:23:58;;;;;;;1.20;1.00;;;5.30;98.00;;;;;;5033790;28;20453;-72
2022/01/08 13:26:34;;;;;;;1.20;0.90;;;5.60;98.00;;;;;;5033945;28;20525;-72
2022/01/08 13:29:04;;;;;;;1.20;1.00;;;5.90;98.00;;;;;;5033812;28;21039;-72
2022/01/08 13:31:46;;;;;;;1.20;1.00;;;6.00;98.00;;;;;;5033912;28;20522;-72
2022/01/08 13:34:14;;;;;;;1.20;1.00;;;6.00;98.00;;;;;;5033804;28;20490;-72